createdAt,value
2019-05-22T00:00:58.276Z,14.90
2019-05-22T00:03:39.670Z,14.90
2019-05-22T00:06:11.016Z,14.80
2019-05-22T00:08:43.811Z,14.80
2019-05-22T00:11:15.256Z,14.80
2019-05-22T00:13:47.618Z,14.70
2019-05-22T00:16:19.824Z,14.70
2019-05-22T00:18:50.825Z,14.80
2019-05-22T00:21:21.637Z,14.90
2019-05-22T00:23:54.948Z,14.90
2019-05-22T00:26:26.471Z,15.00
2019-05-22T00:28:56.602Z,15.00
2019-05-22T00:31:29.795Z,15.20
2019-05-22T00:34:00.264Z,15.30
2019-05-22T00:36:31.708Z,15.20
2019-05-22T00:39:03.146Z,15.20
2019-05-22T00:41:35.239Z,15.20
2019-05-22T00:44:08.517Z,15.20
2019-05-22T00:46:40.458Z,15.30
2019-05-22T00:49:13.164Z,15.30
2019-05-22T00:52:04.999Z,15.30
2019-05-22T00:55:04.595Z,15.30
2019-05-22T00:57:46.070Z,15.30
2019-05-22T01:00:39.682Z,15.30
2019-05-22T01:03:16.818Z,15.30
2019-05-22T01:05:48.315Z,15.20
2019-05-22T01:08:18.406Z,15.30
2019-05-22T01:10:51.102Z,15.20
2019-05-22T01:13:23.137Z,15.20
2019-05-22T01:15:53.022Z,15.20
2019-05-22T01:18:26.226Z,15.10
2019-05-22T01:20:59.394Z,15.20
2019-05-22T01:23:33.578Z,15.20
2019-05-22T01:26:05.612Z,15.20
2019-05-22T01:28:37.479Z,15.10
2019-05-22T01:31:16.223Z,15.10
2019-05-22T01:33:51.222Z,15.10
2019-05-22T01:36:30.480Z,15.10
2019-05-22T01:39:21.319Z,15.10
2019-05-22T01:41:54.566Z,15.00
2019-05-22T01:44:26.202Z,14.90
2019-05-22T01:46:58.486Z,14.90
2019-05-22T01:49:29.572Z,14.90
2019-05-22T01:52:01.336Z,14.80
2019-05-22T01:54:32.027Z,14.80
2019-05-22T01:57:07.294Z,14.70
2019-05-22T01:59:38.854Z,14.70
2019-05-22T02:02:11.974Z,14.70
2019-05-22T02:04:43.556Z,14.60
2019-05-22T02:07:14.246Z,14.60
2019-05-22T02:09:48.527Z,14.60
2019-05-22T02:12:34.312Z,14.50
2019-05-22T02:15:05.452Z,14.40
2019-05-22T02:17:37.621Z,14.40
2019-05-22T02:20:08.891Z,14.40
2019-05-22T02:22:41.198Z,14.50
2019-05-22T02:25:13.237Z,14.50
2019-05-22T02:27:44.162Z,14.60
2019-05-22T02:30:16.245Z,14.60
2019-05-22T02:32:48.511Z,14.60
2019-05-22T02:35:18.597Z,14.60
2019-05-22T02:37:49.483Z,14.50
2019-05-22T02:40:26.862Z,14.60
2019-05-22T02:42:58.723Z,14.60
2019-05-22T02:45:30.999Z,14.60
2019-05-22T02:48:03.951Z,14.60
2019-05-22T02:50:35.102Z,14.60
2019-05-22T02:53:07.656Z,14.70
2019-05-22T02:55:40.046Z,14.70
2019-05-22T02:58:11.123Z,14.70
2019-05-22T03:01:01.817Z,14.60
2019-05-22T03:03:33.927Z,14.60
2019-05-22T03:06:08.187Z,14.60
2019-05-22T03:09:33.009Z,14.60
2019-05-22T03:12:09.480Z,14.60
2019-05-22T03:14:41.451Z,14.60
2019-05-22T03:17:32.840Z,14.70
2019-05-22T03:20:11.768Z,14.70
2019-05-22T03:23:22.061Z,14.60
2019-05-22T03:25:52.722Z,14.50
2019-05-22T03:28:23.727Z,14.40
2019-05-22T03:30:54.378Z,14.40
2019-05-22T03:33:24.460Z,14.30
2019-05-22T03:36:07.837Z,14.40
2019-05-22T03:38:39.258Z,14.40
2019-05-22T03:41:11.105Z,14.40
2019-05-22T03:43:45.144Z,14.40
2019-05-22T03:46:38.283Z,14.40
2019-05-22T03:49:28.175Z,14.50
2019-05-22T03:51:45.635Z,14.50
2019-05-22T03:54:16.509Z,14.60
2019-05-22T03:56:48.178Z,14.60
2019-05-22T03:59:19.010Z,14.60
2019-05-22T04:01:49.236Z,14.70
2019-05-22T04:04:37.199Z,14.80
2019-05-22T04:07:11.043Z,14.90
2019-05-22T04:09:43.230Z,15.00
2019-05-22T04:12:14.745Z,15.00
2019-05-22T04:14:47.068Z,15.00
2019-05-22T04:17:18.693Z,14.90
2019-05-22T04:19:51.634Z,15.00
2019-05-22T04:22:21.785Z,15.10
2019-05-22T04:24:52.481Z,15.10
2019-05-22T04:27:23.234Z,15.10
2019-05-22T04:29:54.478Z,15.20
2019-05-22T04:32:33.139Z,15.30
2019-05-22T04:35:05.348Z,15.30
2019-05-22T04:37:36.609Z,15.30
2019-05-22T04:40:58.348Z,15.40
2019-05-22T04:43:32.646Z,15.40
2019-05-22T04:46:03.867Z,15.60
2019-05-22T04:48:35.225Z,15.70
2019-05-22T04:51:33.020Z,15.70
2019-05-22T04:54:03.406Z,15.70
2019-05-22T04:56:34.155Z,15.70
2019-05-22T04:59:05.711Z,15.60
2019-05-22T05:01:36.892Z,15.60
2019-05-22T05:04:07.947Z,15.70
2019-05-22T05:06:38.725Z,15.80
2019-05-22T05:09:12.386Z,15.80
2019-05-22T05:11:42.612Z,15.80
2019-05-22T05:14:12.792Z,15.80
2019-05-22T05:16:44.046Z,15.90
2019-05-22T05:19:13.966Z,16.00
2019-05-22T05:21:44.016Z,15.90
2019-05-22T05:24:14.367Z,16.00
2019-05-22T05:26:44.907Z,16.10
2019-05-22T05:29:30.933Z,16.10
2019-05-22T05:32:01.396Z,16.30
2019-05-22T05:35:06.133Z,16.40
2019-05-22T05:37:37.130Z,16.30
2019-05-22T05:40:29.414Z,16.40
2019-05-22T05:43:00.325Z,16.40
2019-05-22T05:45:31.679Z,16.50
2019-05-22T05:48:03.519Z,16.40
2019-05-22T05:50:40.056Z,16.50
2019-05-22T05:53:16.487Z,16.70
2019-05-22T05:56:16.979Z,16.90
2019-05-22T05:58:46.855Z,17.00
2019-05-22T06:01:41.364Z,16.90
2019-05-22T06:04:12.927Z,16.90
2019-05-22T06:07:21.366Z,17.00
2019-05-22T06:10:21.269Z,17.30
2019-05-22T06:12:52.099Z,17.30
2019-05-22T06:15:26.742Z,17.50
2019-05-22T06:18:32.834Z,17.40
2019-05-22T06:21:04.383Z,17.20
2019-05-22T06:24:21.455Z,17.30
2019-05-22T06:27:19.275Z,17.20
2019-05-22T06:30:10.901Z,17.20
2019-05-22T06:33:18.472Z,17.20
2019-05-22T06:35:51.947Z,17.40
2019-05-22T06:38:55.799Z,17.60
2019-05-22T06:41:31.742Z,17.60
2019-05-22T06:44:39.872Z,17.60
2019-05-22T06:47:18.396Z,17.50
2019-05-22T06:49:56.952Z,17.70
2019-05-22T06:52:27.326Z,17.90
2019-05-22T06:54:57.958Z,18.20
2019-05-22T06:57:29.764Z,18.00
2019-05-22T07:00:12.998Z,18.00
2019-05-22T07:02:37.859Z,18.40
2019-05-22T07:05:10.975Z,18.20
2019-05-22T07:07:41.351Z,18.30
2019-05-22T07:10:13.614Z,18.40
2019-05-22T07:12:49.553Z,18.60
2019-05-22T07:15:42.199Z,18.60
2019-05-22T07:18:14.498Z,18.40
2019-05-22T07:20:45.941Z,18.40
2019-05-22T07:23:19.554Z,18.40
2019-05-22T07:25:50.201Z,18.30
2019-05-22T07:28:20.648Z,18.50
2019-05-22T07:30:51.798Z,18.80
2019-05-22T07:33:24.259Z,18.80
2019-05-22T07:36:16.028Z,18.80
2019-05-22T07:38:27.902Z,19.30
2019-05-22T07:40:58.642Z,19.30
2019-05-22T07:43:29.152Z,19.20
2019-05-22T07:46:00.460Z,19.50
2019-05-22T07:48:32.379Z,19.40
2019-05-22T07:51:04.087Z,19.60
2019-05-22T07:53:34.436Z,19.90
2019-05-22T07:56:09.994Z,19.80
2019-05-22T07:58:40.698Z,19.70
2019-05-22T08:01:12.576Z,19.90
2019-05-22T08:03:45.666Z,20.10
2019-05-22T08:06:16.388Z,20.20
2019-05-22T08:08:49.605Z,20.40
2019-05-22T08:11:19.920Z,20.40
2019-05-22T08:13:51.164Z,20.50
2019-05-22T08:16:21.688Z,20.60
2019-05-22T08:18:52.935Z,20.50
2019-05-22T08:21:23.736Z,20.60
2019-05-22T08:23:56.140Z,20.50
2019-05-22T08:26:27.395Z,20.50
2019-05-22T08:28:59.008Z,20.70
2019-05-22T08:31:29.771Z,20.80
2019-05-22T08:33:59.782Z,21.00
2019-05-22T08:36:30.736Z,21.00
2019-05-22T08:39:04.334Z,20.90
2019-05-22T08:41:39.911Z,21.00
2019-05-22T08:44:16.748Z,21.20
2019-05-22T08:46:43.124Z,21.20
2019-05-22T08:49:13.106Z,21.30
2019-05-22T08:51:43.060Z,21.60
2019-05-22T08:54:15.116Z,21.70
2019-05-22T08:56:50.627Z,22.00
2019-05-22T08:59:21.576Z,21.90
2019-05-22T09:01:52.353Z,22.30
2019-05-22T09:04:22.562Z,22.20
2019-05-22T09:06:52.621Z,22.00
2019-05-22T09:09:25.054Z,21.90
2019-05-22T09:11:55.119Z,22.10
2019-05-22T09:14:26.187Z,22.30
2019-05-22T09:16:56.378Z,22.00
2019-05-22T09:19:26.736Z,22.60
2019-05-22T09:21:57.575Z,22.10
2019-05-22T09:24:29.005Z,22.10
2019-05-22T09:27:02.633Z,22.00
2019-05-22T09:29:30.761Z,22.30
2019-05-22T09:32:01.134Z,22.30
2019-05-22T09:34:31.756Z,22.10
2019-05-22T09:37:02.316Z,22.30
2019-05-22T09:39:33.304Z,22.50
2019-05-22T09:42:03.313Z,22.00
2019-05-22T09:44:33.236Z,21.70
2019-05-22T09:47:04.607Z,21.90
2019-05-22T09:49:34.744Z,22.00
2019-05-22T09:52:05.521Z,22.60
2019-05-22T09:54:36.496Z,23.10
2019-05-22T09:57:08.267Z,23.10
2019-05-22T09:59:38.220Z,23.40
2019-05-22T10:02:08.714Z,23.70
2019-05-22T10:04:39.377Z,23.80
2019-05-22T10:07:09.330Z,24.00
2019-05-22T10:09:39.433Z,24.00
2019-05-22T10:12:10.632Z,23.70
2019-05-22T10:14:41.063Z,23.10
2019-05-22T10:17:12.342Z,23.50
2019-05-22T10:19:42.262Z,23.80
2019-05-22T10:22:12.594Z,23.80
2019-05-22T10:24:49.627Z,23.80
2019-05-22T10:27:17.235Z,23.90
2019-05-22T10:29:47.620Z,24.20
2019-05-22T10:32:17.682Z,24.40
2019-05-22T10:34:47.747Z,24.30
2019-05-22T10:37:18.411Z,24.40
2019-05-22T10:39:49.058Z,24.40
2019-05-22T10:42:20.216Z,24.70
2019-05-22T10:44:51.296Z,25.10
2019-05-22T10:47:21.839Z,24.60
2019-05-22T10:49:51.966Z,24.10
2019-05-22T10:52:21.905Z,24.80
2019-05-22T10:54:55.824Z,24.80
2019-05-22T10:57:24.355Z,25.00
2019-05-22T10:59:54.732Z,24.80
2019-05-22T11:02:25.113Z,25.00
2019-05-22T11:04:55.479Z,24.90
2019-05-22T11:07:25.499Z,24.10
2019-05-22T11:09:55.788Z,23.70
2019-05-22T11:12:26.233Z,24.10
2019-05-22T11:14:56.997Z,24.30
2019-05-22T11:17:27.299Z,24.30
2019-05-22T11:19:57.180Z,24.10
2019-05-22T11:22:27.541Z,24.20
2019-05-22T11:24:57.993Z,24.50
2019-05-22T11:27:27.972Z,24.30
2019-05-22T11:29:58.472Z,24.20
2019-05-22T11:32:29.458Z,24.10
2019-05-22T11:34:59.925Z,24.10
2019-05-22T11:37:30.399Z,23.80
2019-05-22T11:40:00.768Z,23.80
2019-05-22T11:42:31.366Z,24.70
2019-05-22T11:45:01.510Z,25.20
2019-05-22T11:47:31.595Z,24.70
2019-05-22T11:50:02.379Z,24.60
2019-05-22T11:52:33.016Z,24.40
2019-05-22T11:55:04.441Z,24.80
2019-05-22T11:57:35.959Z,25.10
2019-05-22T12:00:09.332Z,25.60
2019-05-22T12:02:40.488Z,25.80
2019-05-22T12:05:11.961Z,25.60
2019-05-22T12:07:43.794Z,25.70
2019-05-22T12:10:17.135Z,25.70
2019-05-22T12:12:48.397Z,25.70
2019-05-22T12:15:21.078Z,24.80
2019-05-22T12:17:51.206Z,25.00
2019-05-22T12:20:23.562Z,25.00
2019-05-22T12:22:53.650Z,25.20
2019-05-22T12:25:25.117Z,25.50
2019-05-22T12:27:55.919Z,25.00
2019-05-22T12:30:27.426Z,25.00
2019-05-22T12:32:58.152Z,25.50
2019-05-22T12:35:28.973Z,26.90
2019-05-22T12:38:00.783Z,26.90
2019-05-22T12:40:36.378Z,25.80
2019-05-22T12:43:06.673Z,25.30
2019-05-22T12:45:37.236Z,24.90
2019-05-22T12:48:07.481Z,25.90
2019-05-22T12:50:38.367Z,26.90
2019-05-22T12:53:13.983Z,28.00
2019-05-22T12:55:44.590Z,29.30
2019-05-22T12:58:15.093Z,29.30
2019-05-22T13:00:45.731Z,28.80
2019-05-22T13:03:16.149Z,26.70
2019-05-22T13:05:47.818Z,25.70
2019-05-22T13:08:19.106Z,25.70
2019-05-22T13:10:50.507Z,26.00
2019-05-22T13:13:22.163Z,24.60
2019-05-22T13:15:52.906Z,24.50
2019-05-22T13:18:24.455Z,25.30
2019-05-22T13:20:55.530Z,25.50
2019-05-22T13:23:29.168Z,26.40
2019-05-22T13:25:59.866Z,27.10
2019-05-22T13:28:31.841Z,27.80
2019-05-22T13:31:02.163Z,27.70
2019-05-22T13:33:33.510Z,29.50
2019-05-22T13:36:05.590Z,30.00
2019-05-22T13:38:35.985Z,30.30
2019-05-22T13:41:07.114Z,31.70
2019-05-22T13:43:37.409Z,30.40
2019-05-22T13:46:07.682Z,30.20
2019-05-22T13:48:38.194Z,30.10
2019-05-22T13:51:09.667Z,30.00
2019-05-22T13:53:41.755Z,28.90
2019-05-22T13:56:13.495Z,27.80
2019-05-22T13:58:44.375Z,27.40
2019-05-22T14:01:14.452Z,27.50
2019-05-22T14:03:44.344Z,26.80
2019-05-22T14:06:14.897Z,27.60
2019-05-22T14:08:45.399Z,26.40
2019-05-22T14:11:17.367Z,26.30
2019-05-22T14:13:47.534Z,26.80
2019-05-22T14:16:18.984Z,27.00
2019-05-22T14:18:48.952Z,27.40
2019-05-22T14:21:18.745Z,27.20
2019-05-22T14:23:49.101Z,27.80
2019-05-22T14:26:19.326Z,28.20
2019-05-22T14:28:50.798Z,28.10
2019-05-22T14:31:21.323Z,27.80
2019-05-22T14:33:51.738Z,28.60
2019-05-22T14:36:22.682Z,27.60
2019-05-22T14:38:54.195Z,27.40
2019-05-22T14:41:24.937Z,28.10
2019-05-22T14:43:54.878Z,27.10
2019-05-22T14:46:25.218Z,25.90
2019-05-22T14:48:55.210Z,25.60
2019-05-22T14:51:27.194Z,26.40
2019-05-22T14:53:59.055Z,27.00
2019-05-22T14:56:29.381Z,28.30
2019-05-22T14:58:59.800Z,26.30
2019-05-22T15:01:30.554Z,26.40
2019-05-22T15:04:01.299Z,26.10
2019-05-22T15:06:31.712Z,25.30
2019-05-22T15:09:01.839Z,25.20
2019-05-22T15:11:32.468Z,24.80
2019-05-22T15:14:02.437Z,25.10
2019-05-22T15:16:33.913Z,24.30
2019-05-22T15:19:04.391Z,23.80
2019-05-22T15:21:35.200Z,23.80
2019-05-22T15:24:06.653Z,24.30
2019-05-22T15:26:37.100Z,25.00
2019-05-22T15:29:07.824Z,25.30
2019-05-22T15:31:38.502Z,24.80
2019-05-22T15:34:08.950Z,24.50
2019-05-22T15:36:40.015Z,23.90
2019-05-22T15:39:12.722Z,23.80
2019-05-22T15:41:43.849Z,23.40
2019-05-22T15:44:14.287Z,23.40
2019-05-22T15:46:46.958Z,23.30
2019-05-22T15:49:18.309Z,22.90
2019-05-22T15:51:50.594Z,22.80
2019-05-22T15:54:21.992Z,22.80
2019-05-22T15:56:53.984Z,23.00
2019-05-22T15:59:24.328Z,22.80
2019-05-22T16:01:55.447Z,23.10
2019-05-22T16:04:27.444Z,22.90
2019-05-22T16:06:59.160Z,22.80
2019-05-22T16:09:30.963Z,22.90
2019-05-22T16:12:01.979Z,23.00
2019-05-22T16:14:33.544Z,22.80
2019-05-22T16:17:06.541Z,22.60
2019-05-22T16:19:37.196Z,22.60
2019-05-22T16:22:10.559Z,22.60
2019-05-22T16:24:41.740Z,22.40
2019-05-22T16:27:14.882Z,22.50
2019-05-22T16:29:46.536Z,22.40
2019-05-22T16:32:19.520Z,22.50
2019-05-22T16:34:50.367Z,22.50
2019-05-22T16:37:21.194Z,22.60
2019-05-22T16:39:51.580Z,22.60
2019-05-22T16:42:22.171Z,22.20
2019-05-22T16:44:52.147Z,21.80
2019-05-22T16:47:24.654Z,21.20
2019-05-22T16:49:55.720Z,20.70
2019-05-22T16:52:28.997Z,20.10
2019-05-22T16:55:00.119Z,19.40
2019-05-22T16:57:32.003Z,18.20
2019-05-22T17:00:03.032Z,17.80
2019-05-22T17:02:37.234Z,17.80
2019-05-22T17:05:09.469Z,17.80
2019-05-22T17:07:42.579Z,18.00
2019-05-22T17:10:13.595Z,18.00
2019-05-22T17:12:46.731Z,18.00
2019-05-22T17:15:19.002Z,18.40
2019-05-22T17:17:50.374Z,18.50
2019-05-22T17:20:22.471Z,18.70
2019-05-22T17:22:53.149Z,18.90
2019-05-22T17:25:23.471Z,18.70
2019-05-22T17:27:53.534Z,18.70
2019-05-22T17:30:27.095Z,18.90
2019-05-22T17:32:59.609Z,18.80
2019-05-22T17:35:31.216Z,18.90
2019-05-22T17:38:01.212Z,18.80
2019-05-22T17:40:32.597Z,18.70
2019-05-22T17:43:05.169Z,18.60
2019-05-22T17:45:37.140Z,18.50
2019-05-22T17:48:08.651Z,18.40
2019-05-22T17:50:40.059Z,18.50
2019-05-22T17:53:10.110Z,18.40
2019-05-22T17:55:40.798Z,18.10
2019-05-22T17:58:12.068Z,18.20
2019-05-22T18:00:46.231Z,18.10
2019-05-22T18:03:17.294Z,17.90
2019-05-22T18:05:48.115Z,18.00
2019-05-22T18:08:18.966Z,17.90
2019-05-22T18:10:50.927Z,17.80
2019-05-22T18:13:22.928Z,17.90
2019-05-22T18:15:52.999Z,17.70
2019-05-22T18:18:23.027Z,17.60
2019-05-22T18:20:53.563Z,17.60
2019-05-22T18:23:23.471Z,17.60
2019-05-22T18:25:53.789Z,17.50
2019-05-22T18:28:24.235Z,17.30
2019-05-22T18:30:55.006Z,17.40
2019-05-22T18:33:25.222Z,17.30
2019-05-22T18:35:55.129Z,17.20
2019-05-22T18:38:25.643Z,17.20
2019-05-22T18:40:55.634Z,17.20
2019-05-22T18:43:26.069Z,17.30
2019-05-22T18:45:56.394Z,17.10
2019-05-22T18:48:26.507Z,17.10
2019-05-22T18:50:56.741Z,16.90
2019-05-22T18:53:27.138Z,16.90
2019-05-22T18:55:57.031Z,16.90
2019-05-22T18:58:27.522Z,16.90
2019-05-22T19:00:57.559Z,16.80
2019-05-22T19:03:27.465Z,16.80
2019-05-22T19:05:57.823Z,16.50
2019-05-22T19:08:28.255Z,16.50
2019-05-22T19:10:58.198Z,16.40
2019-05-22T19:13:29.072Z,16.40
2019-05-22T19:15:59.120Z,16.40
2019-05-22T19:18:29.860Z,16.50
2019-05-22T19:21:19.043Z,16.40
2019-05-22T19:23:49.080Z,16.50
2019-05-22T19:26:19.330Z,16.50
2019-05-22T19:28:51.391Z,16.30
2019-05-22T19:31:21.405Z,16.20
2019-05-22T19:33:51.776Z,16.10
2019-05-22T19:36:23.131Z,15.80
2019-05-22T19:38:54.429Z,15.80
2019-05-22T19:41:24.895Z,15.60
2019-05-22T19:43:55.351Z,15.70
2019-05-22T19:46:25.462Z,15.70
2019-05-22T19:48:56.155Z,15.50
2019-05-22T19:51:26.370Z,15.30
2019-05-22T19:53:56.426Z,15.20
2019-05-22T19:56:27.189Z,15.10
2019-05-22T19:58:57.930Z,15.10
2019-05-22T20:01:29.566Z,15.00
2019-05-22T20:03:59.735Z,14.90
2019-05-22T20:06:31.210Z,14.90
2019-05-22T20:09:01.349Z,14.80
2019-05-22T20:11:31.826Z,14.80
2019-05-22T20:14:04.134Z,14.70
2019-05-22T20:16:34.524Z,14.60
2019-05-22T20:19:05.123Z,14.50
2019-05-22T20:21:35.067Z,14.50
2019-05-22T20:24:06.595Z,14.50
2019-05-22T20:26:37.011Z,14.40
2019-05-22T20:29:08.282Z,14.40
2019-05-22T20:31:38.685Z,14.40
2019-05-22T20:34:09.167Z,14.40
2019-05-22T20:36:40.987Z,14.30
2019-05-22T20:39:16.903Z,14.20
2019-05-22T20:41:47.484Z,14.00
2019-05-22T20:44:18.383Z,13.90
2019-05-22T20:46:50.532Z,13.80
2019-05-22T20:49:21.687Z,13.70
2019-05-22T20:51:53.195Z,13.60
2019-05-22T20:54:23.559Z,13.60
2019-05-22T20:56:54.593Z,13.60
2019-05-22T20:59:25.378Z,13.60
2019-05-22T21:01:56.177Z,13.50
2019-05-22T21:04:27.914Z,13.40
2019-05-22T21:07:01.286Z,13.40
2019-05-22T21:09:31.948Z,13.30
2019-05-22T21:12:02.362Z,13.30
2019-05-22T21:14:32.517Z,13.20
2019-05-22T21:17:04.453Z,13.20
2019-05-22T21:19:35.418Z,13.10
2019-05-22T21:22:07.390Z,13.00
2019-05-22T21:24:37.274Z,12.90
2019-05-22T21:27:09.794Z,12.90
2019-05-22T21:29:40.274Z,12.80
2019-05-22T21:32:12.368Z,12.80
2019-05-22T21:34:44.003Z,12.80
2019-05-22T21:37:14.975Z,12.80
2019-05-22T21:39:45.879Z,12.70
2019-05-22T21:42:17.017Z,12.60
2019-05-22T21:44:47.272Z,12.60
2019-05-22T21:47:19.525Z,12.50
2019-05-22T21:49:50.627Z,12.50
2019-05-22T21:52:20.575Z,12.50
2019-05-22T21:54:50.829Z,12.40
2019-05-22T21:57:21.552Z,12.50
2019-05-22T21:59:51.974Z,12.40
2019-05-22T22:02:31.834Z,12.40
2019-05-22T22:05:01.677Z,12.30
2019-05-22T22:07:32.591Z,12.30
2019-05-22T22:10:03.994Z,12.20
2019-05-22T22:12:34.655Z,12.20
2019-05-22T22:15:05.889Z,12.10
2019-05-22T22:17:37.680Z,12.20
2019-05-22T22:20:09.051Z,12.10
2019-05-22T22:22:39.433Z,12.10
2019-05-22T22:25:11.238Z,12.10
2019-05-22T22:27:41.934Z,12.00
2019-05-22T22:30:23.759Z,12.00
2019-05-22T22:32:54.793Z,11.90
2019-05-22T22:35:25.558Z,11.80
2019-05-22T22:37:57.076Z,11.90
2019-05-22T22:40:30.265Z,11.80
2019-05-22T22:43:02.626Z,11.90
2019-05-22T22:45:43.911Z,11.80
2019-05-22T22:48:16.594Z,11.80
2019-05-22T22:50:48.392Z,11.80
2019-05-22T22:53:18.590Z,11.80
2019-05-22T22:55:49.701Z,11.80
2019-05-22T22:58:20.660Z,11.70
2019-05-22T23:00:53.701Z,11.70
2019-05-22T23:03:27.361Z,11.70
2019-05-22T23:05:59.047Z,11.70
2019-05-22T23:08:32.600Z,11.60
2019-05-22T23:11:04.763Z,11.60
2019-05-22T23:13:36.258Z,11.60
2019-05-22T23:16:07.990Z,11.60
2019-05-22T23:19:16.502Z,11.60
2019-05-22T23:21:47.887Z,11.60
2019-05-22T23:24:20.457Z,11.60
2019-05-22T23:26:50.999Z,11.50
2019-05-22T23:29:21.918Z,11.50
2019-05-22T23:31:53.950Z,11.50
2019-05-22T23:34:25.051Z,11.50
2019-05-22T23:36:58.155Z,11.60
2019-05-22T23:39:30.878Z,11.50
2019-05-22T23:42:05.027Z,11.50
2019-05-22T23:44:37.258Z,11.60
2019-05-22T23:47:09.221Z,11.50
2019-05-22T23:49:41.386Z,11.50
2019-05-22T23:52:13.395Z,11.40
2019-05-22T23:54:44.991Z,11.40
2019-05-22T23:57:18.106Z,11.30
2019-05-22T23:59:53.548Z,11.30
